sensor_id;sensor_type;location;lat;lon;timestamp;P1;durP1;ratioP1;P2;durP2;ratioP2
11039;SDS011;5573;49.592;8.662;2023-07-13T00:01:15;148.80;;;141.13;;
11039;SDS011;5573;49.592;8.662;2023-07-13T00:03:44;150.88;;;143.15;;
11039;SDS011;5573;49.592;8.662;2023-07-13T00:06:12;146.73;;;139.30;;
11039;SDS011;5573;49.592;8.662;2023-07-13T00:08:40;151.40;;;143.68;;
11039;SDS011;5573;49.592;8.662;2023-07-13T00:11:08;151.18;;;143.35;;
11039;SDS011;5573;49.592;8.662;2023-07-13T00:13:37;144.10;;;136.60;;
11039;SDS011;5573;49.592;8.662;2023-07-13T00:16:06;148.48;;;140.90;;
11039;SDS011;5573;49.592;8.662;2023-07-13T00:18:37;133.63;;;126.70;;
11039;SDS011;5573;49.592;8.662;2023-07-13T00:21:05;153.98;;;146.05;;
11039;SDS011;5573;49.592;8.662;2023-07-13T00:23:33;146.10;;;138.70;;
11039;SDS011;5573;49.592;8.662;2023-07-13T00:26:01;144.52;;;137.15;;
11039;SDS011;5573;49.592;8.662;2023-07-13T00:28:30;141.93;;;134.75;;
11039;SDS011;5573;49.592;8.662;2023-07-13T00:30:58;145.65;;;138.32;;
11039;SDS011;5573;49.592;8.662;2023-07-13T00:33:26;136.00;;;129.00;;
11039;SDS011;5573;49.592;8.662;2023-07-13T00:35:57;138.93;;;131.77;;
11039;SDS011;5573;49.592;8.662;2023-07-13T00:38:25;148.15;;;140.43;;
11039;SDS011;5573;49.592;8.662;2023-07-13T00:40:53;146.18;;;138.63;;
11039;SDS011;5573;49.592;8.662;2023-07-13T00:43:23;152.15;;;144.25;;
11039;SDS011;5573;49.592;8.662;2023-07-13T00:48:46;149.52;;;141.85;;
11039;SDS011;5573;49.592;8.662;2023-07-13T00:51:20;134.65;;;127.55;;
11039;SDS011;5573;49.592;8.662;2023-07-13T00:53:52;146.07;;;138.48;;
11039;SDS011;5573;49.592;8.662;2023-07-13T00:56:21;140.90;;;133.70;;
11039;SDS011;5573;49.592;8.662;2023-07-13T00:58:51;130.75;;;124.03;;
11039;SDS011;5573;49.592;8.662;2023-07-13T01:01:20;139.70;;;132.52;;
11039;SDS011;5573;49.592;8.662;2023-07-13T01:03:49;138.27;;;131.23;;
11039;SDS011;5573;49.592;8.662;2023-07-13T01:06:18;138.25;;;131.10;;
11039;SDS011;5573;49.592;8.662;2023-07-13T01:08:46;146.55;;;138.95;;
11039;SDS011;5573;49.592;8.662;2023-07-13T01:11:18;145.95;;;138.45;;
11039;SDS011;5573;49.592;8.662;2023-07-13T01:13:48;137.20;;;130.18;;
11039;SDS011;5573;49.592;8.662;2023-07-13T01:16:19;136.00;;;129.02;;
11039;SDS011;5573;49.592;8.662;2023-07-13T01:18:52;138.00;;;130.88;;
11039;SDS011;5573;49.592;8.662;2023-07-13T01:21:23;133.73;;;126.78;;
11039;SDS011;5573;49.592;8.662;2023-07-13T01:23:51;130.73;;;124.00;;
11039;SDS011;5573;49.592;8.662;2023-07-13T01:26:20;142.02;;;134.77;;
11039;SDS011;5573;49.592;8.662;2023-07-13T01:28:48;143.57;;;136.20;;
11039;SDS011;5573;49.592;8.662;2023-07-13T01:31:16;143.25;;;135.88;;
11039;SDS011;5573;49.592;8.662;2023-07-13T01:33:44;144.88;;;137.48;;
11039;SDS011;5573;49.592;8.662;2023-07-13T01:36:12;137.57;;;130.52;;
11039;SDS011;5573;49.592;8.662;2023-07-13T01:38:41;150.25;;;142.52;;
11039;SDS011;5573;49.592;8.662;2023-07-13T01:41:10;147.38;;;139.77;;
11039;SDS011;5573;49.592;8.662;2023-07-13T01:43:39;145.50;;;138.05;;
11039;SDS011;5573;49.592;8.662;2023-07-13T01:46:06;161.77;;;153.35;;
11039;SDS011;5573;49.592;8.662;2023-07-13T01:48:49;172.18;;;163.20;;
11039;SDS011;5573;49.592;8.662;2023-07-13T01:51:17;167.85;;;159.07;;
11039;SDS011;5573;49.592;8.662;2023-07-13T01:53:49;166.85;;;158.27;;
11039;SDS011;5573;49.592;8.662;2023-07-13T01:56:17;167.50;;;158.63;;
11039;SDS011;5573;49.592;8.662;2023-07-13T01:58:45;182.20;;;172.73;;
11039;SDS011;5573;49.592;8.662;2023-07-13T02:01:13;182.55;;;173.18;;
11039;SDS011;5573;49.592;8.662;2023-07-13T02:03:41;194.88;;;184.95;;
11039;SDS011;5573;49.592;8.662;2023-07-13T02:06:09;188.10;;;178.57;;
11039;SDS011;5573;49.592;8.662;2023-07-13T02:08:37;173.32;;;164.40;;
11039;SDS011;5573;49.592;8.662;2023-07-13T02:11:06;185.70;;;176.20;;
11039;SDS011;5573;49.592;8.662;2023-07-13T02:13:34;204.13;;;193.57;;
11039;SDS011;5573;49.592;8.662;2023-07-13T02:16:03;183.15;;;173.65;;
11039;SDS011;5573;49.592;8.662;2023-07-13T02:18:31;179.80;;;170.40;;
11039;SDS011;5573;49.592;8.662;2023-07-13T02:20:59;191.32;;;181.38;;
11039;SDS011;5573;49.592;8.662;2023-07-13T02:23:26;193.35;;;183.32;;
11039;SDS011;5573;49.592;8.662;2023-07-13T02:25:55;181.70;;;172.23;;
11039;SDS011;5573;49.592;8.662;2023-07-13T02:28:24;191.10;;;181.15;;
11039;SDS011;5573;49.592;8.662;2023-07-13T02:30:52;180.20;;;170.77;;
11039;SDS011;5573;49.592;8.662;2023-07-13T02:33:20;191.55;;;181.63;;
11039;SDS011;5573;49.592;8.662;2023-07-13T02:35:48;192.73;;;182.73;;
11039;SDS011;5573;49.592;8.662;2023-07-13T02:38:18;183.65;;;174.18;;
11039;SDS011;5573;49.592;8.662;2023-07-13T02:40:47;172.57;;;163.65;;
11039;SDS011;5573;49.592;8.662;2023-07-13T02:43:14;178.50;;;169.25;;
11039;SDS011;5573;49.592;8.662;2023-07-13T02:45:44;182.43;;;173.02;;
11039;SDS011;5573;49.592;8.662;2023-07-13T02:48:13;173.30;;;164.32;;
11039;SDS011;5573;49.592;8.662;2023-07-13T02:50:41;173.23;;;164.32;;
11039;SDS011;5573;49.592;8.662;2023-07-13T02:53:09;174.80;;;165.75;;
11039;SDS011;5573;49.592;8.662;2023-07-13T02:55:38;184.20;;;174.82;;
11039;SDS011;5573;49.592;8.662;2023-07-13T02:58:07;186.18;;;176.50;;
11039;SDS011;5573;49.592;8.662;2023-07-13T03:00:37;194.68;;;184.85;;
11039;SDS011;5573;49.592;8.662;2023-07-13T03:03:09;188.95;;;179.27;;
11039;SDS011;5573;49.592;8.662;2023-07-13T03:05:37;197.60;;;187.52;;
11039;SDS011;5573;49.592;8.662;2023-07-13T03:08:05;202.23;;;191.98;;
11039;SDS011;5573;49.592;8.662;2023-07-13T03:10:34;191.57;;;181.80;;
11039;SDS011;5573;49.592;8.662;2023-07-13T03:13:02;195.77;;;185.73;;
11039;SDS011;5573;49.592;8.662;2023-07-13T03:15:30;180.65;;;171.35;;
11039;SDS011;5573;49.592;8.662;2023-07-13T03:17:58;191.40;;;181.52;;
11039;SDS011;5573;49.592;8.662;2023-07-13T03:20:28;196.13;;;185.98;;
11039;SDS011;5573;49.592;8.662;2023-07-13T03:22:56;200.70;;;190.50;;
11039;SDS011;5573;49.592;8.662;2023-07-13T03:25:25;195.20;;;185.10;;
11039;SDS011;5573;49.592;8.662;2023-07-13T03:27:53;208.23;;;197.70;;
11039;SDS011;5573;49.592;8.662;2023-07-13T03:30:22;199.88;;;189.55;;
11039;SDS011;5573;49.592;8.662;2023-07-13T03:32:50;208.70;;;198.05;;
11039;SDS011;5573;49.592;8.662;2023-07-13T03:35:18;199.85;;;189.48;;
11039;SDS011;5573;49.592;8.662;2023-07-13T03:37:48;199.13;;;188.95;;
11039;SDS011;5573;49.592;8.662;2023-07-13T03:40:19;209.80;;;198.95;;
11039;SDS011;5573;49.592;8.662;2023-07-13T03:42:47;195.32;;;185.25;;
11039;SDS011;5573;49.592;8.662;2023-07-13T03:45:17;206.52;;;195.95;;
11039;SDS011;5573;49.592;8.662;2023-07-13T03:47:46;205.85;;;195.35;;
11039;SDS011;5573;49.592;8.662;2023-07-13T03:50:16;206.15;;;195.50;;
11039;SDS011;5573;49.592;8.662;2023-07-13T03:52:44;222.00;;;210.48;;
11039;SDS011;5573;49.592;8.662;2023-07-13T03:55:16;202.85;;;192.48;;
11039;SDS011;5573;49.592;8.662;2023-07-13T03:57:44;218.93;;;207.80;;
11039;SDS011;5573;49.592;8.662;2023-07-13T04:00:13;210.68;;;199.85;;
11039;SDS011;5573;49.592;8.662;2023-07-13T04:02:42;207.32;;;196.68;;
11039;SDS011;5573;49.592;8.662;2023-07-13T04:05:10;200.80;;;190.50;;
11039;SDS011;5573;49.592;8.662;2023-07-13T04:07:38;216.00;;;204.98;;
11039;SDS011;5573;49.592;8.662;2023-07-13T04:10:06;219.48;;;208.23;;
11039;SDS011;5573;49.592;8.662;2023-07-13T04:12:36;213.90;;;202.93;;
11039;SDS011;5573;49.592;8.662;2023-07-13T04:15:04;219.73;;;208.38;;
11039;SDS011;5573;49.592;8.662;2023-07-13T04:17:33;215.98;;;204.90;;
11039;SDS011;5573;49.592;8.662;2023-07-13T04:20:01;228.80;;;217.27;;
11039;SDS011;5573;49.592;8.662;2023-07-13T04:22:30;209.70;;;198.95;;
11039;SDS011;5573;49.592;8.662;2023-07-13T04:24:58;205.73;;;195.27;;
11039;SDS011;5573;49.592;8.662;2023-07-13T04:27:26;223.88;;;212.57;;
11039;SDS011;5573;49.592;8.662;2023-07-13T04:29:56;212.27;;;201.27;;
11039;SDS011;5573;49.592;8.662;2023-07-13T04:32:24;229.57;;;218.05;;
11039;SDS011;5573;49.592;8.662;2023-07-13T04:34:52;227.15;;;215.57;;
11039;SDS011;5573;49.592;8.662;2023-07-13T04:37:22;213.82;;;203.23;;
11039;SDS011;5573;49.592;8.662;2023-07-13T04:39:50;228.43;;;217.02;;
11039;SDS011;5573;49.592;8.662;2023-07-13T04:42:18;215.73;;;204.80;;
11039;SDS011;5573;49.592;8.662;2023-07-13T04:44:47;219.70;;;208.52;;
11039;SDS011;5573;49.592;8.662;2023-07-13T04:47:17;201.45;;;191.05;;
11039;SDS011;5573;49.592;8.662;2023-07-13T04:49:45;205.93;;;195.35;;
11039;SDS011;5573;49.592;8.662;2023-07-13T04:52:13;222.85;;;211.50;;
11039;SDS011;5573;49.592;8.662;2023-07-13T04:54:41;213.50;;;202.60;;
11039;SDS011;5573;49.592;8.662;2023-07-13T04:57:08;219.15;;;207.95;;
11039;SDS011;5573;49.592;8.662;2023-07-13T04:59:36;209.40;;;198.70;;
11039;SDS011;5573;49.592;8.662;2023-07-13T05:02:04;212.02;;;201.15;;
11039;SDS011;5573;49.592;8.662;2023-07-13T05:04:34;214.45;;;203.55;;
11039;SDS011;5573;49.592;8.662;2023-07-13T05:07:01;218.55;;;207.43;;
11039;SDS011;5573;49.592;8.662;2023-07-13T05:09:29;204.48;;;194.10;;
11039;SDS011;5573;49.592;8.662;2023-07-13T05:11:57;221.45;;;210.23;;
11039;SDS011;5573;49.592;8.662;2023-07-13T05:14:25;233.60;;;221.73;;
11039;SDS011;5573;49.592;8.662;2023-07-13T05:16:53;228.18;;;216.50;;
11039;SDS011;5573;49.592;8.662;2023-07-13T05:19:23;229.38;;;217.88;;
11039;SDS011;5573;49.592;8.662;2023-07-13T05:21:53;237.70;;;225.68;;
11039;SDS011;5573;49.592;8.662;2023-07-13T05:24:21;215.00;;;204.00;;
11039;SDS011;5573;49.592;8.662;2023-07-13T05:26:51;221.63;;;210.40;;
11039;SDS011;5573;49.592;8.662;2023-07-13T05:29:20;227.75;;;216.27;;
11039;SDS011;5573;49.592;8.662;2023-07-13T05:31:48;218.20;;;207.05;;
11039;SDS011;5573;49.592;8.662;2023-07-13T05:34:16;232.63;;;220.90;;
11039;SDS011;5573;49.592;8.662;2023-07-13T05:36:44;201.43;;;191.13;;
11039;SDS011;5573;49.592;8.662;2023-07-13T05:39:13;213.35;;;202.43;;
11039;SDS011;5573;49.592;8.662;2023-07-13T05:41:41;217.52;;;206.43;;
11039;SDS011;5573;49.592;8.662;2023-07-13T05:44:09;227.85;;;216.50;;
11039;SDS011;5573;49.592;8.662;2023-07-13T05:46:36;215.40;;;204.48;;
11039;SDS011;5573;49.592;8.662;2023-07-13T05:49:04;223.52;;;212.15;;
11039;SDS011;5573;49.592;8.662;2023-07-13T05:51:32;216.75;;;205.63;;
11039;SDS011;5573;49.592;8.662;2023-07-13T05:54:00;230.38;;;218.88;;
11039;SDS011;5573;49.592;8.662;2023-07-13T05:56:29;214.65;;;203.80;;
11039;SDS011;5573;49.592;8.662;2023-07-13T05:58:57;226.88;;;215.45;;
11039;SDS011;5573;49.592;8.662;2023-07-13T06:01:25;219.15;;;207.95;;
11039;SDS011;5573;49.592;8.662;2023-07-13T06:03:53;199.40;;;189.07;;
11039;SDS011;5573;49.592;8.662;2023-07-13T06:06:20;206.32;;;195.88;;
11039;SDS011;5573;49.592;8.662;2023-07-13T06:08:48;190.52;;;180.60;;
11039;SDS011;5573;49.592;8.662;2023-07-13T06:11:17;174.75;;;165.80;;
11039;SDS011;5573;49.592;8.662;2023-07-13T06:13:48;183.25;;;173.95;;
11039;SDS011;5573;49.592;8.662;2023-07-13T06:16:16;180.82;;;171.45;;
11039;SDS011;5573;49.592;8.662;2023-07-13T06:18:45;191.05;;;181.35;;
11039;SDS011;5573;49.592;8.662;2023-07-13T06:21:14;149.02;;;141.38;;
11039;SDS011;5573;49.592;8.662;2023-07-13T06:23:43;128.50;;;121.90;;
11039;SDS011;5573;49.592;8.662;2023-07-13T06:26:12;129.20;;;122.57;;
11039;SDS011;5573;49.592;8.662;2023-07-13T06:28:39;135.55;;;128.60;;
11039;SDS011;5573;49.592;8.662;2023-07-13T06:31:09;131.05;;;124.45;;
11039;SDS011;5573;49.592;8.662;2023-07-13T06:33:39;152.77;;;144.98;;
11039;SDS011;5573;49.592;8.662;2023-07-13T06:36:07;149.80;;;142.27;;
11039;SDS011;5573;49.592;8.662;2023-07-13T06:38:36;159.20;;;151.15;;
11039;SDS011;5573;49.592;8.662;2023-07-13T06:41:05;156.88;;;148.95;;
11039;SDS011;5573;49.592;8.662;2023-07-13T06:43:33;179.20;;;170.13;;
11039;SDS011;5573;49.592;8.662;2023-07-13T06:46:01;171.15;;;162.48;;
11039;SDS011;5573;49.592;8.662;2023-07-13T06:48:30;173.02;;;164.38;;
11039;SDS011;5573;49.592;8.662;2023-07-13T06:50:58;184.20;;;174.90;;
11039;SDS011;5573;49.592;8.662;2023-07-13T06:53:26;175.73;;;166.70;;
11039;SDS011;5573;49.592;8.662;2023-07-13T06:55:54;177.63;;;168.55;;
11039;SDS011;5573;49.592;8.662;2023-07-13T06:58:22;177.07;;;168.10;;
11039;SDS011;5573;49.592;8.662;2023-07-13T07:00:50;189.25;;;179.60;;
11039;SDS011;5573;49.592;8.662;2023-07-13T07:03:19;192.82;;;182.75;;
11039;SDS011;5573;49.592;8.662;2023-07-13T07:05:49;173.07;;;164.07;;
11039;SDS011;5573;49.592;8.662;2023-07-13T07:08:17;181.95;;;172.48;;
11039;SDS011;5573;49.592;8.662;2023-07-13T07:10:45;179.30;;;169.70;;
11039;SDS011;5573;49.592;8.662;2023-07-13T07:13:13;209.07;;;198.40;;
11039;SDS011;5573;49.592;8.662;2023-07-13T07:15:41;230.50;;;219.07;;
11039;SDS011;5573;49.592;8.662;2023-07-13T07:18:08;253.20;;;240.43;;
11039;SDS011;5573;49.592;8.662;2023-07-13T07:20:36;228.85;;;217.15;;
11039;SDS011;5573;49.592;8.662;2023-07-13T07:23:05;235.25;;;222.98;;
11039;SDS011;5573;49.592;8.662;2023-07-13T07:25:33;236.95;;;224.93;;
11039;SDS011;5573;49.592;8.662;2023-07-13T07:28:03;276.67;;;262.73;;
11039;SDS011;5573;49.592;8.662;2023-07-13T07:30:34;302.55;;;287.13;;
11039;SDS011;5573;49.592;8.662;2023-07-13T07:33:05;274.50;;;260.63;;
11039;SDS011;5573;49.592;8.662;2023-07-13T07:35:32;257.40;;;244.43;;
11039;SDS011;5573;49.592;8.662;2023-07-13T07:38:08;249.95;;;237.40;;
11039;SDS011;5573;49.592;8.662;2023-07-13T07:40:36;250.10;;;237.52;;
11039;SDS011;5573;49.592;8.662;2023-07-13T07:43:08;256.35;;;243.45;;
11039;SDS011;5573;49.592;8.662;2023-07-13T07:45:36;239.05;;;227.07;;
11039;SDS011;5573;49.592;8.662;2023-07-13T07:48:05;257.58;;;244.75;;
11039;SDS011;5573;49.592;8.662;2023-07-13T07:50:33;249.95;;;237.45;;
11039;SDS011;5573;49.592;8.662;2023-07-13T07:53:02;252.80;;;240.20;;
11039;SDS011;5573;49.592;8.662;2023-07-13T07:55:34;242.32;;;230.07;;
11039;SDS011;5573;49.592;8.662;2023-07-13T07:58:05;241.93;;;229.82;;
11039;SDS011;5573;49.592;8.662;2023-07-13T08:00:53;237.60;;;225.73;;
11039;SDS011;5573;49.592;8.662;2023-07-13T08:03:24;256.63;;;243.77;;
11039;SDS011;5573;49.592;8.662;2023-07-13T08:05:55;232.27;;;220.75;;
11039;SDS011;5573;49.592;8.662;2023-07-13T08:08:43;243.82;;;231.70;;
11039;SDS011;5573;49.592;8.662;2023-07-13T08:11:12;234.05;;;222.27;;
11039;SDS011;5573;49.592;8.662;2023-07-13T08:13:44;222.68;;;211.55;;
11039;SDS011;5573;49.592;8.662;2023-07-13T08:16:12;264.75;;;251.40;;
11039;SDS011;5573;49.592;8.662;2023-07-13T08:18:40;263.15;;;249.80;;
11039;SDS011;5573;49.592;8.662;2023-07-13T08:21:08;286.45;;;271.77;;
11039;SDS011;5573;49.592;8.662;2023-07-13T08:23:37;281.80;;;267.65;;
11039;SDS011;5573;49.592;8.662;2023-07-13T08:26:05;234.00;;;222.23;;
11039;SDS011;5573;49.592;8.662;2023-07-13T08:28:35;203.02;;;192.77;;
11039;SDS011;5573;49.592;8.662;2023-07-13T08:31:03;208.90;;;198.32;;
11039;SDS011;5573;49.592;8.662;2023-07-13T08:33:33;179.52;;;169.93;;
11039;SDS011;5573;49.592;8.662;2023-07-13T08:36:02;152.82;;;144.70;;
11039;SDS011;5573;49.592;8.662;2023-07-13T08:38:31;175.40;;;166.13;;
11039;SDS011;5573;49.592;8.662;2023-07-13T08:40:59;195.45;;;185.32;;
11039;SDS011;5573;49.592;8.662;2023-07-13T08:43:28;198.80;;;188.55;;
11039;SDS011;5573;49.592;8.662;2023-07-13T08:45:59;205.02;;;194.35;;
11039;SDS011;5573;49.592;8.662;2023-07-13T08:48:31;196.15;;;185.82;;
11039;SDS011;5573;49.592;8.662;2023-07-13T08:51:04;186.45;;;176.82;;
11039;SDS011;5573;49.592;8.662;2023-07-13T08:53:42;184.27;;;174.55;;
11039;SDS011;5573;49.592;8.662;2023-07-13T08:56:16;199.52;;;189.10;;
11039;SDS011;5573;49.592;8.662;2023-07-13T08:58:48;202.57;;;192.13;;
11039;SDS011;5573;49.592;8.662;2023-07-13T09:01:24;186.70;;;176.98;;
11039;SDS011;5573;49.592;8.662;2023-07-13T09:03:59;192.63;;;182.45;;
11039;SDS011;5573;49.592;8.662;2023-07-13T09:06:34;183.95;;;174.30;;
11039;SDS011;5573;49.592;8.662;2023-07-13T09:09:17;193.07;;;183.10;;
11039;SDS011;5573;49.592;8.662;2023-07-13T09:11:53;201.02;;;190.57;;
11039;SDS011;5573;49.592;8.662;2023-07-13T09:14:33;187.57;;;177.90;;
11039;SDS011;5573;49.592;8.662;2023-07-13T09:17:10;187.20;;;177.48;;
11039;SDS011;5573;49.592;8.662;2023-07-13T09:19:42;199.82;;;189.35;;
11039;SDS011;5573;49.592;8.662;2023-07-13T09:22:14;188.05;;;178.18;;
11039;SDS011;5573;49.592;8.662;2023-07-13T09:24:51;192.70;;;182.73;;
11039;SDS011;5573;49.592;8.662;2023-07-13T09:27:23;195.25;;;185.07;;
11039;SDS011;5573;49.592;8.662;2023-07-13T09:29:57;192.68;;;182.73;;
11039;SDS011;5573;49.592;8.662;2023-07-13T09:32:33;185.07;;;175.52;;
11039;SDS011;5573;49.592;8.662;2023-07-13T09:35:01;186.60;;;176.93;;
11039;SDS011;5573;49.592;8.662;2023-07-13T09:37:38;188.10;;;178.18;;
11039;SDS011;5573;49.592;8.662;2023-07-13T09:40:09;195.52;;;185.38;;
11039;SDS011;5573;49.592;8.662;2023-07-13T09:42:44;188.10;;;178.30;;
11039;SDS011;5573;49.592;8.662;2023-07-13T09:45:12;193.23;;;183.25;;
11039;SDS011;5573;49.592;8.662;2023-07-13T09:47:59;187.10;;;177.45;;
11039;SDS011;5573;49.592;8.662;2023-07-13T09:50:32;170.80;;;161.73;;
11039;SDS011;5573;49.592;8.662;2023-07-13T09:53:00;166.02;;;157.27;;
11039;SDS011;5573;49.592;8.662;2023-07-13T09:55:29;170.38;;;161.52;;
11039;SDS011;5573;49.592;8.662;2023-07-13T09:58:02;165.93;;;157.30;;
11039;SDS011;5573;49.592;8.662;2023-07-13T10:00:32;190.05;;;180.35;;
11039;SDS011;5573;49.592;8.662;2023-07-13T10:03:04;184.88;;;175.18;;
11039;SDS011;5573;49.592;8.662;2023-07-13T10:05:42;191.90;;;182.07;;
11039;SDS011;5573;49.592;8.662;2023-07-13T10:08:18;192.65;;;182.77;;
11039;SDS011;5573;49.592;8.662;2023-07-13T10:10:57;180.50;;;171.15;;
11039;SDS011;5573;49.592;8.662;2023-07-13T10:13:29;186.63;;;176.82;;
11039;SDS011;5573;49.592;8.662;2023-07-13T10:16:01;164.73;;;156.05;;
11039;SDS011;5573;49.592;8.662;2023-07-13T10:18:35;187.75;;;177.90;;
11039;SDS011;5573;49.592;8.662;2023-07-13T10:21:10;178.65;;;169.35;;
11039;SDS011;5573;49.592;8.662;2023-07-13T10:23:43;174.20;;;164.98;;
11039;SDS011;5573;49.592;8.662;2023-07-13T10:26:16;165.52;;;156.90;;
11039;SDS011;5573;49.592;8.662;2023-07-13T10:28:50;179.90;;;170.38;;
11039;SDS011;5573;49.592;8.662;2023-07-13T10:31:21;166.70;;;157.90;;
11039;SDS011;5573;49.592;8.662;2023-07-13T10:33:51;156.95;;;148.57;;
11039;SDS011;5573;49.592;8.662;2023-07-13T10:36:26;167.75;;;158.80;;
11039;SDS011;5573;49.592;8.662;2023-07-13T10:38:59;165.60;;;156.93;;
11039;SDS011;5573;49.592;8.662;2023-07-13T10:41:30;160.77;;;152.32;;
11039;SDS011;5573;49.592;8.662;2023-07-13T10:44:01;160.55;;;152.00;;
11039;SDS011;5573;49.592;8.662;2023-07-13T10:46:32;144.95;;;137.18;;
11039;SDS011;5573;49.592;8.662;2023-07-13T10:49:03;141.05;;;133.48;;
11039;SDS011;5573;49.592;8.662;2023-07-13T10:51:33;141.05;;;133.43;;
11039;SDS011;5573;49.592;8.662;2023-07-13T10:54:10;148.90;;;140.88;;
11039;SDS011;5573;49.592;8.662;2023-07-13T10:56:46;143.77;;;136.05;;
11039;SDS011;5573;49.592;8.662;2023-07-13T10:59:17;147.70;;;139.85;;
11039;SDS011;5573;49.592;8.662;2023-07-13T11:01:54;168.68;;;159.68;;
11039;SDS011;5573;49.592;8.662;2023-07-13T11:04:27;166.60;;;157.88;;
11039;SDS011;5573;49.592;8.662;2023-07-13T11:07:10;146.98;;;139.00;;
11039;SDS011;5573;49.592;8.662;2023-07-13T11:09:48;143.70;;;136.02;;
11039;SDS011;5573;49.592;8.662;2023-07-13T11:12:28;153.93;;;145.63;;
11039;SDS011;5573;49.592;8.662;2023-07-13T11:15:12;147.95;;;140.00;;
11039;SDS011;5573;49.592;8.662;2023-07-13T11:17:48;147.70;;;139.68;;
11039;SDS011;5573;49.592;8.662;2023-07-13T11:25:58;159.80;;;151.27;;
11039;SDS011;5573;49.592;8.662;2023-07-13T11:28:30;153.18;;;144.82;;
11039;SDS011;5573;49.592;8.662;2023-07-13T11:33:54;139.93;;;132.40;;
11039;SDS011;5573;49.592;8.662;2023-07-13T11:36:27;142.50;;;134.82;;
11039;SDS011;5573;49.592;8.662;2023-07-13T11:39:00;150.63;;;142.40;;
11039;SDS011;5573;49.592;8.662;2023-07-13T11:41:32;142.60;;;134.88;;
11039;SDS011;5573;49.592;8.662;2023-07-13T11:44:06;149.35;;;141.30;;
11039;SDS011;5573;49.592;8.662;2023-07-13T11:46:38;164.15;;;155.25;;
11039;SDS011;5573;49.592;8.662;2023-07-13T11:49:06;152.82;;;144.65;;
11039;SDS011;5573;49.592;8.662;2023-07-13T11:51:36;181.07;;;171.60;;
11039;SDS011;5573;49.592;8.662;2023-07-13T11:54:05;175.10;;;166.05;;
11039;SDS011;5573;49.592;8.662;2023-07-13T11:56:40;188.73;;;178.93;;
11039;SDS011;5573;49.592;8.662;2023-07-13T11:59:10;178.77;;;169.55;;
11039;SDS011;5573;49.592;8.662;2023-07-13T12:01:42;186.75;;;177.20;;
11039;SDS011;5573;49.592;8.662;2023-07-13T12:04:19;168.82;;;160.15;;
11039;SDS011;5573;49.592;8.662;2023-07-13T12:06:55;172.00;;;163.15;;
11039;SDS011;5573;49.592;8.662;2023-07-13T12:09:26;183.63;;;174.07;;
11039;SDS011;5573;49.592;8.662;2023-07-13T12:11:56;182.27;;;172.98;;
11039;SDS011;5573;49.592;8.662;2023-07-13T12:14:26;179.23;;;170.13;;
11039;SDS011;5573;49.592;8.662;2023-07-13T12:16:55;179.20;;;169.88;;
11039;SDS011;5573;49.592;8.662;2023-07-13T12:19:24;162.05;;;153.65;;
11039;SDS011;5573;49.592;8.662;2023-07-13T12:21:54;175.20;;;166.13;;
11039;SDS011;5573;49.592;8.662;2023-07-13T12:24:25;173.48;;;164.52;;
11039;SDS011;5573;49.592;8.662;2023-07-13T12:26:58;177.45;;;168.32;;
11039;SDS011;5573;49.592;8.662;2023-07-13T12:29:28;177.48;;;168.25;;
11039;SDS011;5573;49.592;8.662;2023-07-13T12:31:56;170.70;;;161.90;;
11039;SDS011;5573;49.592;8.662;2023-07-13T12:34:25;182.63;;;173.27;;
11039;SDS011;5573;49.592;8.662;2023-07-13T12:36:54;201.18;;;191.07;;
11039;SDS011;5573;49.592;8.662;2023-07-13T12:39:28;185.45;;;176.07;;
11039;SDS011;5573;49.592;8.662;2023-07-13T12:42:10;185.20;;;175.82;;
11039;SDS011;5573;49.592;8.662;2023-07-13T12:44:47;199.55;;;189.45;;
11039;SDS011;5573;49.592;8.662;2023-07-13T12:47:15;201.32;;;191.15;;
11039;SDS011;5573;49.592;8.662;2023-07-13T12:49:47;206.80;;;196.20;;
11039;SDS011;5573;49.592;8.662;2023-07-13T12:52:20;194.68;;;184.90;;
11039;SDS011;5573;49.592;8.662;2023-07-13T12:54:53;204.05;;;193.70;;
11039;SDS011;5573;49.592;8.662;2023-07-13T12:57:32;189.18;;;179.60;;
11039;SDS011;5573;49.592;8.662;2023-07-13T13:00:00;184.13;;;174.82;;
11039;SDS011;5573;49.592;8.662;2023-07-13T13:02:32;188.73;;;179.27;;
11039;SDS011;5573;49.592;8.662;2023-07-13T13:05:02;178.15;;;169.02;;
11039;SDS011;5573;49.592;8.662;2023-07-13T13:07:32;185.38;;;175.98;;
11039;SDS011;5573;49.592;8.662;2023-07-13T13:10:00;191.38;;;181.70;;
11039;SDS011;5573;49.592;8.662;2023-07-13T13:12:28;182.77;;;173.50;;
11039;SDS011;5573;49.592;8.662;2023-07-13T13:14:58;171.52;;;162.73;;
11039;SDS011;5573;49.592;8.662;2023-07-13T13:17:27;183.57;;;174.15;;
11039;SDS011;5573;49.592;8.662;2023-07-13T13:19:58;196.93;;;186.93;;
11039;SDS011;5573;49.592;8.662;2023-07-13T13:22:26;170.73;;;161.80;;
11039;SDS011;5573;49.592;8.662;2023-07-13T13:24:55;175.43;;;166.38;;
11039;SDS011;5573;49.592;8.662;2023-07-13T13:27:23;182.82;;;173.45;;
11039;SDS011;5573;49.592;8.662;2023-07-13T13:29:51;175.80;;;166.80;;
11039;SDS011;5573;49.592;8.662;2023-07-13T13:32:19;178.55;;;169.30;;
11039;SDS011;5573;49.592;8.662;2023-07-13T13:34:47;177.25;;;168.18;;
11039;SDS011;5573;49.592;8.662;2023-07-13T13:37:18;171.82;;;162.85;;
11039;SDS011;5573;49.592;8.662;2023-07-13T13:39:47;166.65;;;158.00;;
11039;SDS011;5573;49.592;8.662;2023-07-13T13:42:35;170.70;;;161.82;;
11039;SDS011;5573;49.592;8.662;2023-07-13T13:45:03;163.50;;;155.05;;
11039;SDS011;5573;49.592;8.662;2023-07-13T13:47:32;167.63;;;158.77;;
11039;SDS011;5573;49.592;8.662;2023-07-13T13:50:09;153.32;;;145.25;;
11039;SDS011;5573;49.592;8.662;2023-07-13T13:52:39;166.75;;;157.90;;
11039;SDS011;5573;49.592;8.662;2023-07-13T13:55:11;165.45;;;156.85;;
11039;SDS011;5573;49.592;8.662;2023-07-13T13:57:41;165.27;;;156.77;;
11039;SDS011;5573;49.592;8.662;2023-07-13T14:00:09;178.10;;;168.82;;
11039;SDS011;5573;49.592;8.662;2023-07-13T14:02:41;165.45;;;156.98;;
11039;SDS011;5573;49.592;8.662;2023-07-13T14:05:14;169.07;;;160.35;;
11039;SDS011;5573;49.592;8.662;2023-07-13T14:07:45;163.75;;;155.02;;
11039;SDS011;5573;49.592;8.662;2023-07-13T14:10:15;157.23;;;148.95;;
11039;SDS011;5573;49.592;8.662;2023-07-13T14:12:47;166.38;;;157.57;;
11039;SDS011;5573;49.592;8.662;2023-07-13T14:15:20;169.57;;;160.68;;
11039;SDS011;5573;49.592;8.662;2023-07-13T14:17:49;165.77;;;157.10;;
11039;SDS011;5573;49.592;8.662;2023-07-13T14:20:17;159.75;;;151.25;;
11039;SDS011;5573;49.592;8.662;2023-07-13T14:22:46;177.07;;;167.95;;
11039;SDS011;5573;49.592;8.662;2023-07-13T14:25:17;170.45;;;161.68;;
11039;SDS011;5573;49.592;8.662;2023-07-13T14:27:48;170.00;;;161.25;;
11039;SDS011;5573;49.592;8.662;2023-07-13T14:30:19;176.13;;;166.85;;
11039;SDS011;5573;49.592;8.662;2023-07-13T14:32:48;179.45;;;170.15;;
11039;SDS011;5573;49.592;8.662;2023-07-13T14:35:17;173.07;;;164.20;;
11039;SDS011;5573;49.592;8.662;2023-07-13T14:37:48;178.52;;;169.15;;